Sacre-Coeur, Canada
Current Conditions -  °F | °C
As of 4:00 AM on Monday 20 Oct 2014 (Local Time) from CYYY Reporting Station
Broken Clouds Broken Clouds  
Wind Chill: 27°   Ceiling: 7000
Heat Index: 37°   Visibility: 30mi
Dew Point: 30°   Wind: 18mph
Humidity: 75%   Direction: 280°W
Pressure: 29.7"   Gusts: 25mph
Location:  48.43°N, 68.58°W
Report Text: CYYY 200800Z 28016G22KT 30SM SCT040 BKN070 03/M01 A2970 RMK SC4AC1 SLP058
Loading
Personal Weather Stations






























Interactive Weather Map
Tropical Storm Tracking
New forecast layout! Learn more

10-Day Weather Forecast

Advertisements
Track Severe Weather on mobile